Time;durP1;ratioP1;P1;durP2;ratioP2;P2;SDS_P1;SDS_P2;PMS_P1;PMS_P2;Temp;Humidity;BMP_temperature;BMP_pressure;BME280_temperature;BME280_humidity;BME280_pressure;Samples;Min_cycle;Max_cycle;Signal;HPM_P1;HPM_P2
2021/12/10 00:01:49;;;;;;;6.37;3.77;;;5.50;99.90;;;;;;4910713;29;20656;-73
2021/12/10 00:04:18;;;;;;;7.87;4.03;;;5.50;99.90;;;;;;4894042;29;20219;-74
2021/12/10 00:06:51;;;;;;;5.60;4.00;;;5.50;99.90;;;;;;4909342;29;20703;-72
2021/12/10 00:09:24;;;;;;;7.13;3.90;;;5.60;99.90;;;;;;4910838;29;20211;-73
2021/12/10 00:12:06;;;;;;;6.80;4.10;;;5.50;99.90;;;;;;4909089;29;20215;-73
2021/12/10 00:14:35;;;;;;;8.07;4.03;;;5.50;99.90;;;;;;4909834;29;20307;-74
2021/12/10 00:17:06;;;;;;;5.80;3.50;;;5.40;99.90;;;;;;4910716;29;20215;-73
2021/12/10 00:19:44;;;;;;;9.60;4.27;;;5.40;99.90;;;;;;4904390;29;20203;-73
2021/12/10 00:22:19;;;;;;;8.57;4.50;;;5.40;99.90;;;;;;4911156;29;20207;-73
2021/12/10 00:24:49;;;;;;;7.73;4.20;;;5.50;99.90;;;;;;4893011;29;20235;-73
2021/12/10 00:27:26;;;;;;;8.60;4.00;;;5.50;99.90;;;;;;4902613;29;20203;-73
2021/12/10 00:30:03;;;;;;;5.50;3.97;;;5.50;99.90;;;;;;4895211;29;20207;-73
2021/12/10 00:32:35;;;;;;;8.53;4.17;;;5.50;99.90;;;;;;4908053;29;20278;-73
2021/12/10 00:35:08;;;;;;;8.43;4.00;;;5.50;99.90;;;;;;4896836;29;20635;-73
2021/12/10 00:37:36;;;;;;;9.73;4.20;;;5.50;99.90;;;;;;4912246;29;20195;-73
2021/12/10 00:40:06;;;;;;;10.77;4.33;;;5.60;99.90;;;;;;4910433;29;20231;-72
2021/12/10 00:42:34;;;;;;;7.43;4.17;;;5.60;99.90;;;;;;4909063;29;20259;-73
2021/12/10 00:45:04;;;;;;;7.43;4.10;;;5.60;99.90;;;;;;4908486;29;20654;-73
2021/12/10 00:47:31;;;;;;;9.33;4.40;;;5.70;99.90;;;;;;4912627;29;20206;-73
2021/12/10 00:49:59;;;;;;;6.83;3.87;;;5.70;99.90;;;;;;4904949;29;20200;-73
2021/12/10 00:52:26;;;;;;;8.83;3.83;;;5.70;99.90;;;;;;4903482;29;20223;-74
2021/12/10 00:54:53;;;;;;;8.17;3.97;;;5.70;99.90;;;;;;4906276;29;20292;-74
2021/12/10 00:57:20;;;;;;;8.30;3.77;;;5.70;99.90;;;;;;4907785;29;20195;-70
2021/12/10 00:59:49;;;;;;;7.73;4.40;;;5.60;99.90;;;;;;4903212;29;20529;-73
2021/12/10 01:02:24;;;;;;;8.60;4.10;;;5.60;99.90;;;;;;4904233;29;20255;-73
2021/12/10 01:04:58;;;;;;;7.53;3.50;;;5.70;99.90;;;;;;4905701;29;20203;-73
2021/12/10 01:07:30;;;;;;;8.43;4.00;;;5.70;99.90;;;;;;4909225;29;20203;-73
2021/12/10 01:09:59;;;;;;;8.43;3.77;;;5.70;99.90;;;;;;4901966;29;20195;-74
2021/12/10 01:12:31;;;;;;;9.17;4.10;;;5.70;99.90;;;;;;4895403;29;20219;-74
2021/12/10 01:15:34;;;;;;;7.20;3.20;;;5.70;99.90;;;;;;4905245;29;20199;-75
2021/12/10 01:23:47;;;;;;;5.13;3.70;;;5.70;99.90;;;;;;4909947;29;20214;-73
2021/12/10 01:24:16;;;;;;;9.23;3.47;;;5.80;99.90;;;;;;4910566;29;20196;-75
2021/12/10 01:29:28;;;;;;;7.60;3.23;;;5.70;99.90;;;;;;4910685;29;20282;-76
2021/12/10 01:31:57;;;;;;;8.43;3.37;;;5.70;99.90;;;;;;4908705;29;20288;-73
2021/12/10 01:34:24;;;;;;;8.70;3.60;;;5.70;99.90;;;;;;4890581;29;20610;-73
2021/12/10 01:36:51;;;;;;;8.53;3.20;;;5.70;99.90;;;;;;4912405;29;20294;-74
2021/12/10 01:39:22;;;;;;;9.80;3.40;;;5.70;99.90;;;;;;4908709;29;20209;-73
2021/12/10 01:41:56;;;;;;;7.03;3.27;;;5.70;99.90;;;;;;4911931;29;20232;-73
2021/12/10 01:44:30;;;;;;;9.37;3.20;;;5.70;99.90;;;;;;4910416;29;20271;-73
2021/12/10 01:47:01;;;;;;;10.13;3.30;;;5.70;99.90;;;;;;4909276;29;20230;-73
2021/12/10 01:49:29;;;;;;;8.13;2.83;;;5.70;99.90;;;;;;4905243;29;20484;-73
2021/12/10 01:51:57;;;;;;;9.43;3.00;;;5.70;99.90;;;;;;4903127;29;20736;-75
2021/12/10 01:54:40;;;;;;;6.70;3.00;;;5.80;99.90;;;;;;4911030;29;20200;-75
2021/12/10 01:57:09;;;;;;;7.97;3.47;;;5.80;99.90;;;;;;4895137;29;20200;-75
2021/12/10 01:59:37;;;;;;;7.83;2.87;;;5.80;99.90;;;;;;4908066;29;20202;-75
2021/12/10 02:02:10;;;;;;;11.43;3.00;;;5.70;99.90;;;;;;4890961;29;20255;-75
2021/12/10 02:04:39;;;;;;;7.67;3.23;;;5.70;99.90;;;;;;4905303;29;20791;-73
2021/12/10 02:07:08;;;;;;;6.93;2.80;;;5.80;99.90;;;;;;4910799;29;20254;-75
2021/12/10 02:09:35;;;;;;;6.87;2.60;;;5.80;99.90;;;;;;4912035;29;20203;-75
2021/12/10 02:12:03;;;;;;;9.27;2.70;;;5.80;99.90;;;;;;4904475;29;20224;-73
2021/12/10 02:14:30;;;;;;;6.13;2.57;;;5.70;99.90;;;;;;4897618;29;20196;-73
2021/12/10 02:16:58;;;;;;;5.17;2.67;;;5.70;99.90;;;;;;4909873;29;20767;-73
2021/12/10 02:19:27;;;;;;;7.10;2.50;;;5.70;99.90;;;;;;4895013;29;20196;-74
2021/12/10 02:21:55;;;;;;;6.80;2.90;;;5.70;99.90;;;;;;4911514;29;20211;-73
2021/12/10 02:24:21;;;;;;;7.17;3.30;;;5.70;99.90;;;;;;4908800;29;20683;-74
2021/12/10 02:26:52;;;;;;;9.50;3.00;;;5.70;99.90;;;;;;4912114;29;20228;-73
2021/12/10 02:29:23;;;;;;;5.53;2.47;;;5.80;99.90;;;;;;4912840;29;20208;-73
2021/12/10 02:31:50;;;;;;;7.17;2.27;;;5.80;99.90;;;;;;4911395;29;20223;-73
2021/12/10 02:34:18;;;;;;;7.90;2.40;;;5.70;99.90;;;;;;4911872;29;20200;-74
2021/12/10 02:36:44;;;;;;;7.77;2.17;;;5.60;99.90;;;;;;4911182;29;20594;-73
2021/12/10 02:39:18;;;;;;;5.50;2.33;;;5.60;99.90;;;;;;4913809;29;20224;-73
2021/12/10 02:41:46;;;;;;;3.97;1.87;;;5.60;99.90;;;;;;4910080;29;20207;-73
2021/12/10 02:44:20;;;;;;;5.17;2.00;;;5.50;99.90;;;;;;4911221;29;20203;-75
2021/12/10 02:46:48;;;;;;;4.33;2.00;;;5.50;99.90;;;;;;4912537;29;20218;-73
2021/12/10 02:49:16;;;;;;;7.07;2.10;;;5.50;99.90;;;;;;4914620;29;20202;-73
2021/12/10 02:51:43;;;;;;;4.93;2.30;;;5.40;99.90;;;;;;4912815;29;20587;-74
2021/12/10 02:54:14;;;;;;;3.40;2.00;;;5.30;99.90;;;;;;4911557;29;20270;-73
2021/12/10 02:56:42;;;;;;;6.93;2.03;;;5.30;99.90;;;;;;4913447;29;20243;-73
2021/12/10 02:59:09;;;;;;;10.57;2.40;;;5.30;99.90;;;;;;4914736;29;20216;-73
2021/12/10 03:01:43;;;;;;;8.83;2.20;;;5.40;99.90;;;;;;4913174;29;20615;-73
2021/12/10 03:04:10;;;;;;;7.50;2.00;;;5.30;99.90;;;;;;4910691;29;20210;-74
2021/12/10 03:06:44;;;;;;;3.93;1.93;;;5.40;99.90;;;;;;4909819;29;20224;-71
2021/12/10 03:09:13;;;;;;;9.23;2.00;;;5.40;99.90;;;;;;4908051;29;20726;-73
2021/12/10 03:11:46;;;;;;;6.80;2.17;;;5.30;99.90;;;;;;4914300;29;20232;-73
2021/12/10 03:14:14;;;;;;;3.17;1.80;;;5.30;99.90;;;;;;4911508;29;20691;-74
2021/12/10 03:16:41;;;;;;;4.60;2.10;;;5.40;99.90;;;;;;4902871;29;20269;-75
2021/12/10 03:19:08;;;;;;;5.40;1.80;;;5.30;99.90;;;;;;4911063;29;20203;-73
2021/12/10 03:21:39;;;;;;;4.13;1.60;;;5.40;99.90;;;;;;4913622;29;20214;-76
2021/12/10 03:24:06;;;;;;;6.50;2.03;;;5.30;99.90;;;;;;4908541;29;20639;-73
2021/12/10 03:26:33;;;;;;;5.90;2.20;;;5.30;99.90;;;;;;4911905;29;20668;-73
2021/12/10 03:29:00;;;;;;;7.27;1.90;;;5.30;99.90;;;;;;4907184;29;20223;-73
2021/12/10 03:31:27;;;;;;;5.23;1.93;;;5.30;99.90;;;;;;4897513;29;20205;-73
2021/12/10 03:33:56;;;;;;;8.70;2.40;;;5.30;99.90;;;;;;4908970;29;20195;-73
2021/12/10 03:36:24;;;;;;;8.57;2.10;;;5.30;99.90;;;;;;4905290;29;20633;-71
2021/12/10 03:38:52;;;;;;;4.37;2.00;;;5.40;99.90;;;;;;4912363;29;20208;-73
2021/12/10 03:41:20;;;;;;;3.67;2.03;;;5.40;99.90;;;;;;4911270;29;20255;-73
2021/12/10 03:43:50;;;;;;;6.03;2.30;;;5.30;99.90;;;;;;4912042;29;20255;-73
2021/12/10 03:46:18;;;;;;;5.73;2.13;;;5.10;99.90;;;;;;4900372;29;20298;-73
2021/12/10 03:48:48;;;;;;;6.67;2.30;;;5.00;99.90;;;;;;4912931;29;20680;-73
2021/12/10 03:51:20;;;;;;;5.13;2.47;;;5.00;99.90;;;;;;4907910;29;20204;-73
2021/12/10 03:53:48;;;;;;;4.43;2.23;;;5.00;99.90;;;;;;4910038;29;20786;-73
2021/12/10 03:56:19;;;;;;;5.40;2.47;;;5.00;99.90;;;;;;4905296;29;20222;-74
2021/12/10 03:58:47;;;;;;;12.23;2.67;;;4.90;99.90;;;;;;4911054;29;20192;-73
2021/12/10 04:01:17;;;;;;;14.07;3.70;;;4.90;99.90;;;;;;4911221;29;20206;-75
2021/12/10 04:03:46;;;;;;;6.80;3.37;;;4.80;99.90;;;;;;4912975;29;20210;-73
2021/12/10 04:06:13;;;;;;;12.93;4.17;;;4.70;99.90;;;;;;4906659;29;20225;-73
2021/12/10 04:08:40;;;;;;;11.97;4.43;;;4.50;99.90;;;;;;4909907;29;20212;-73
2021/12/10 04:11:08;;;;;;;15.60;4.63;;;4.40;99.90;;;;;;4892490;29;20215;-73
2021/12/10 04:13:36;;;;;;;10.47;4.73;;;4.30;99.90;;;;;;4913980;29;20224;-75
2021/12/10 04:16:03;;;;;;;6.63;4.27;;;4.20;99.90;;;;;;4909699;29;20224;-72
2021/12/10 04:18:31;;;;;;;9.60;4.20;;;4.00;99.90;;;;;;4911947;29;20201;-73
2021/12/10 04:20:58;;;;;;;9.50;4.90;;;4.00;99.90;;;;;;4911938;29;20213;-73
2021/12/10 04:23:25;;;;;;;9.20;4.40;;;4.00;99.90;;;;;;4896849;29;20199;-73
2021/12/10 04:25:52;;;;;;;7.70;4.67;;;3.90;99.90;;;;;;4909176;29;20586;-74
2021/12/10 04:28:21;;;;;;;10.40;5.03;;;3.80;99.90;;;;;;4896568;29;20204;-73
2021/12/10 04:30:49;;;;;;;13.20;5.03;;;3.70;99.90;;;;;;4909578;29;20292;-74
2021/12/10 04:33:21;;;;;;;10.13;5.00;;;3.60;99.90;;;;;;4909978;29;20638;-73
2021/12/10 04:35:50;;;;;;;9.83;5.13;;;3.50;99.90;;;;;;4909750;29;20267;-74
2021/12/10 04:38:18;;;;;;;12.57;5.30;;;3.40;99.90;;;;;;4899686;29;20405;-73
2021/12/10 04:40:47;;;;;;;15.67;5.87;;;3.40;99.90;;;;;;4905398;29;20596;-73
2021/12/10 04:43:16;;;;;;;9.47;4.60;;;3.30;99.90;;;;;;4912177;29;20626;-73
2021/12/10 04:45:43;;;;;;;11.47;4.67;;;3.20;99.90;;;;;;4906308;29;20223;-73
2021/12/10 04:48:10;;;;;;;10.07;4.60;;;3.20;99.90;;;;;;4910501;29;20551;-74
2021/12/10 04:50:36;;;;;;;11.67;4.83;;;3.10;99.90;;;;;;4901141;29;20648;-71
2021/12/10 04:53:09;;;;;;;13.27;5.17;;;3.10;99.90;;;;;;4902660;29;20224;-74
2021/12/10 04:55:37;;;;;;;10.07;4.63;;;3.00;99.90;;;;;;4894720;29;20219;-73
2021/12/10 04:58:05;;;;;;;9.57;4.73;;;3.10;99.90;;;;;;4890519;29;20683;-74
2021/12/10 05:00:38;;;;;;;10.23;4.80;;;2.90;99.90;;;;;;4906972;29;20196;-73
2021/12/10 05:03:08;;;;;;;10.60;5.47;;;2.90;99.90;;;;;;4905455;29;20196;-73
2021/12/10 05:05:35;;;;;;;14.57;5.70;;;2.80;99.90;;;;;;4905750;29;20278;-73
2021/12/10 05:08:03;;;;;;;18.47;5.90;;;2.80;99.90;;;;;;4907410;29;20207;-74
2021/12/10 05:10:30;;;;;;;14.63;5.63;;;2.90;99.90;;;;;;4907725;29;20657;-75
2021/12/10 05:12:57;;;;;;;17.13;5.70;;;2.80;99.90;;;;;;4893354;29;20669;-73
2021/12/10 05:15:27;;;;;;;19.33;5.63;;;2.80;99.90;;;;;;4907947;29;20306;-73
2021/12/10 05:17:55;;;;;;;13.53;5.53;;;2.70;99.90;;;;;;4902700;29;20240;-72
2021/12/10 05:20:29;;;;;;;19.57;6.10;;;2.70;99.90;;;;;;4893759;29;20222;-72
2021/12/10 05:22:56;;;;;;;9.70;4.40;;;2.60;99.90;;;;;;4904793;29;20205;-75
2021/12/10 05:25:26;;;;;;;13.47;5.27;;;2.60;99.90;;;;;;4909402;29;20233;-72
2021/12/10 05:27:53;;;;;;;17.83;6.03;;;2.60;99.90;;;;;;4902755;29;20200;-73
2021/12/10 05:30:23;;;;;;;14.13;4.93;;;2.50;99.90;;;;;;4909110;29;20266;-73
2021/12/10 05:32:51;;;;;;;11.23;4.70;;;2.50;99.90;;;;;;4910753;29;20232;-73
2021/12/10 05:35:18;;;;;;;10.97;4.03;;;2.60;99.90;;;;;;4912978;29;20706;-73
2021/12/10 05:37:45;;;;;;;8.63;4.47;;;2.50;99.90;;;;;;4913411;29;20206;-73
2021/12/10 05:40:14;;;;;;;11.37;4.30;;;2.50;99.90;;;;;;4913395;29;20689;-73
2021/12/10 05:42:43;;;;;;;15.23;4.80;;;2.50;99.90;;;;;;4913993;29;20210;-74
2021/12/10 05:45:12;;;;;;;9.03;3.70;;;2.50;99.90;;;;;;4911101;29;20714;-71
2021/12/10 05:47:39;;;;;;;11.77;4.20;;;2.50;99.90;;;;;;4911226;29;20568;-73
2021/12/10 05:50:07;;;;;;;7.03;3.80;;;2.40;99.90;;;;;;4910707;29;20740;-75
2021/12/10 05:52:34;;;;;;;8.43;4.47;;;2.30;99.90;;;;;;4912134;29;20214;-74
2021/12/10 05:55:01;;;;;;;14.17;4.17;;;2.30;99.90;;;;;;4895484;29;20218;-75
2021/12/10 05:57:28;;;;;;;5.97;3.80;;;2.40;99.90;;;;;;4912260;29;20195;-74
2021/12/10 05:59:55;;;;;;;11.33;4.30;;;2.30;99.90;;;;;;4897697;29;20258;-74
2021/12/10 06:02:21;;;;;;;9.03;4.13;;;2.40;99.90;;;;;;4905052;29;20219;-73
2021/12/10 06:04:48;;;;;;;13.13;4.50;;;2.30;99.90;;;;;;4907303;29;20218;-73
2021/12/10 06:07:15;;;;;;;8.13;4.20;;;2.30;99.90;;;;;;4911884;29;20662;-73
2021/12/10 06:09:42;;;;;;;9.00;4.23;;;2.20;99.90;;;;;;4911073;29;20218;-73
2021/12/10 06:12:09;;;;;;;11.57;4.40;;;2.20;99.90;;;;;;4910954;29;20211;-75
2021/12/10 06:14:35;;;;;;;15.00;4.20;;;2.10;99.90;;;;;;4910777;29;20202;-71
2021/12/10 06:17:02;;;;;;;9.77;4.17;;;2.00;99.90;;;;;;4894764;29;20229;-74
2021/12/10 06:19:29;;;;;;;11.70;4.13;;;1.90;99.90;;;;;;4909429;29;20214;-74
2021/12/10 06:21:56;;;;;;;12.50;4.40;;;1.90;99.90;;;;;;4912640;29;20210;-72
2021/12/10 06:24:24;;;;;;;15.90;4.77;;;1.80;99.90;;;;;;4911356;29;20683;-74
2021/12/10 06:26:52;;;;;;;14.07;4.53;;;1.80;99.90;;;;;;4911446;29;20229;-74
2021/12/10 06:29:23;;;;;;;13.50;4.37;;;2.00;99.90;;;;;;4908763;29;20280;-74
2021/12/10 06:31:50;;;;;;;9.23;4.30;;;1.90;99.90;;;;;;4907080;29;20229;-75
2021/12/10 06:34:17;;;;;;;10.77;4.53;;;1.80;99.90;;;;;;4912548;29;20228;-74
2021/12/10 06:36:43;;;;;;;16.10;5.07;;;1.70;99.90;;;;;;4909501;29;20230;-74
2021/12/10 06:39:11;;;;;;;8.30;4.53;;;1.70;99.90;;;;;;4909277;29;20193;-75
2021/12/10 06:41:37;;;;;;;8.20;4.33;;;1.70;99.90;;;;;;4910036;29;20213;-72
2021/12/10 06:44:04;;;;;;;7.03;4.33;;;1.70;99.90;;;;;;4908821;29;20209;-72
2021/12/10 06:46:34;;;;;;;11.40;4.53;;;1.70;99.90;;;;;;4914555;29;20221;-74
2021/12/10 06:49:02;;;;;;;10.97;4.33;;;1.80;99.90;;;;;;4910207;29;20209;-74
2021/12/10 06:51:29;;;;;;;13.50;4.70;;;1.90;99.90;;;;;;4895315;29;20210;-73
2021/12/10 06:53:56;;;;;;;13.63;4.50;;;1.70;99.90;;;;;;4896583;29;20231;-73
2021/12/10 06:56:23;;;;;;;10.20;4.23;;;1.60;99.90;;;;;;4912603;29;20217;-71
2021/12/10 06:58:51;;;;;;;8.83;4.47;;;1.70;99.90;;;;;;4905501;29;21446;-75
2021/12/10 07:01:27;;;;;;;9.57;4.17;;;1.70;99.90;;;;;;4905111;29;20206;-74
2021/12/10 07:03:55;;;;;;;10.33;4.20;;;1.60;99.90;;;;;;4894462;29;20681;-75
2021/12/10 07:06:24;;;;;;;10.50;4.50;;;1.50;99.90;;;;;;4904011;29;20256;-74
2021/12/10 07:08:52;;;;;;;10.77;5.70;;;1.50;99.90;;;;;;4892794;29;20598;-73
2021/12/10 07:11:21;;;;;;;15.27;8.50;;;1.50;99.90;;;;;;4904996;29;20245;-73
2021/12/10 07:13:51;;;;;;;13.43;4.87;;;1.60;99.90;;;;;;4905794;29;20230;-74
2021/12/10 07:16:20;;;;;;;9.97;4.33;;;1.70;99.90;;;;;;4905895;29;20224;-74
2021/12/10 07:18:47;;;;;;;11.50;4.13;;;1.60;99.90;;;;;;4906292;29;20404;-71
2021/12/10 07:21:15;;;;;;;14.07;4.80;;;1.60;99.90;;;;;;4906277;29;20211;-69
2021/12/10 07:23:42;;;;;;;11.57;4.87;;;1.70;99.90;;;;;;4903430;29;20221;-72
2021/12/10 07:26:13;;;;;;;14.67;5.67;;;1.70;99.90;;;;;;4902783;29;20233;-72
2021/12/10 07:28:40;;;;;;;11.03;4.50;;;1.70;99.90;;;;;;4902781;29;20202;-73
2021/12/10 07:31:08;;;;;;;12.77;4.40;;;1.70;99.90;;;;;;4904275;29;20338;-75
2021/12/10 07:33:35;;;;;;;12.77;4.50;;;1.80;99.90;;;;;;4907679;29;20257;-74
2021/12/10 07:36:04;;;;;;;12.27;3.97;;;1.80;99.90;;;;;;4907426;29;20219;-74
2021/12/10 07:38:31;;;;;;;11.40;4.43;;;1.80;99.90;;;;;;4907664;29;20202;-76
2021/12/10 07:40:58;;;;;;;9.20;4.27;;;1.80;99.90;;;;;;4911224;29;20259;-75
2021/12/10 07:43:25;;;;;;;10.77;6.70;;;1.80;99.90;;;;;;4910275;29;20341;-73
2021/12/10 07:45:53;;;;;;;11.17;4.63;;;1.80;99.90;;;;;;4906869;29;20226;-74
2021/12/10 07:48:23;;;;;;;10.10;4.50;;;1.90;99.90;;;;;;4907989;29;20237;-71
2021/12/10 07:50:58;;;;;;;12.63;5.53;;;1.90;99.90;;;;;;4907742;29;20578;-72
2021/12/10 07:53:28;;;;;;;11.67;4.40;;;2.00;99.90;;;;;;4897852;29;20222;-75
2021/12/10 07:55:56;;;;;;;9.43;4.93;;;2.10;99.90;;;;;;4905851;29;20233;-75
2021/12/10 07:58:23;;;;;;;11.23;4.90;;;2.10;99.90;;;;;;4891383;29;20202;-75
2021/12/10 08:00:50;;;;;;;9.60;5.20;;;2.20;99.90;;;;;;4905820;29;20198;-72
2021/12/10 08:03:18;;;;;;;14.67;6.00;;;2.30;99.90;;;;;;4906506;29;20865;-72
2021/12/10 08:05:45;;;;;;;12.77;6.70;;;2.30;99.90;;;;;;4906664;29;20234;-72
2021/12/10 08:08:12;;;;;;;12.77;5.97;;;2.30;99.90;;;;;;4902909;29;20267;-73
2021/12/10 08:10:40;;;;;;;13.97;5.87;;;2.50;99.90;;;;;;4906216;29;20226;-72
2021/12/10 08:13:08;;;;;;;13.07;5.90;;;2.50;99.90;;;;;;4904331;29;20230;-72
2021/12/10 08:15:36;;;;;;;16.43;6.13;;;2.50;99.90;;;;;;4907362;29;20226;-70
2021/12/10 08:18:04;;;;;;;12.20;5.97;;;2.60;99.90;;;;;;4905570;29;20590;-71
2021/12/10 08:20:32;;;;;;;10.70;4.77;;;2.60;99.90;;;;;;4909108;29;20214;-71
2021/12/10 08:22:59;;;;;;;12.37;5.77;;;2.70;99.90;;;;;;4907314;29;20199;-71
2021/12/10 08:25:27;;;;;;;11.10;5.00;;;2.80;99.90;;;;;;4905326;29;20250;-74
2021/12/10 08:27:56;;;;;;;10.97;4.47;;;2.80;99.90;;;;;;4905702;29;20217;-70
2021/12/10 08:30:25;;;;;;;10.57;5.07;;;2.90;99.90;;;;;;4906018;29;20199;-71
2021/12/10 08:32:54;;;;;;;7.60;4.27;;;3.00;99.90;;;;;;4906517;29;20203;-73
2021/12/10 08:35:26;;;;;;;11.33;4.83;;;3.00;99.90;;;;;;4901907;29;20215;-70
2021/12/10 08:37:54;;;;;;;10.63;3.87;;;3.00;99.90;;;;;;4904594;29;20392;-73
2021/12/10 08:40:25;;;;;;;12.33;5.60;;;3.00;99.90;;;;;;4902882;29;20203;-72
2021/12/10 08:42:53;;;;;;;12.30;3.87;;;3.10;99.90;;;;;;4904390;29;20207;-71
2021/12/10 08:45:23;;;;;;;8.33;3.80;;;3.20;99.90;;;;;;4905751;29;20223;-72
2021/12/10 08:47:51;;;;;;;9.13;4.13;;;3.30;99.90;;;;;;4900419;29;20207;-74
2021/12/10 08:50:22;;;;;;;12.87;5.60;;;3.40;99.90;;;;;;4892750;29;20795;-76
2021/12/10 08:52:57;;;;;;;16.47;5.13;;;3.40;99.90;;;;;;4907017;29;20231;-73
2021/12/10 08:55:26;;;;;;;10.27;4.83;;;3.40;99.90;;;;;;4905541;29;20249;-71
2021/12/10 08:57:54;;;;;;;10.37;4.63;;;3.40;99.90;;;;;;4905294;29;20687;-73
2021/12/10 09:00:21;;;;;;;10.50;4.00;;;3.50;99.90;;;;;;4905724;29;20984;-71
2021/12/10 09:02:50;;;;;;;8.80;3.63;;;3.50;99.90;;;;;;4901960;29;20207;-76
2021/12/10 09:05:17;;;;;;;10.63;3.97;;;3.60;99.90;;;;;;4903112;29;20907;-70
2021/12/10 09:07:46;;;;;;;10.83;4.20;;;3.60;99.90;;;;;;4903944;29;20204;-72
2021/12/10 09:10:17;;;;;;;9.80;3.47;;;3.70;99.90;;;;;;4897459;29;20258;-71
2021/12/10 09:12:44;;;;;;;6.77;3.10;;;3.70;99.90;;;;;;4905614;29;20210;-72
2021/12/10 09:15:17;;;;;;;6.17;3.03;;;3.60;99.90;;;;;;4902172;29;20283;-72
2021/12/10 09:17:45;;;;;;;6.90;3.40;;;3.70;99.90;;;;;;4906991;29;20582;-72
2021/12/10 09:20:18;;;;;;;8.43;3.43;;;3.80;99.90;;;;;;4904843;29;20653;-68
2021/12/10 09:22:45;;;;;;;7.43;3.33;;;3.80;99.90;;;;;;4895048;29;20200;-72
2021/12/10 09:25:13;;;;;;;7.33;3.30;;;3.80;99.90;;;;;;4891624;29;20219;-74
2021/12/10 09:27:40;;;;;;;5.60;3.50;;;3.80;99.90;;;;;;4903221;29;20255;-73
2021/12/10 09:30:11;;;;;;;5.40;3.40;;;3.70;99.90;;;;;;4902010;29;20663;-72
2021/12/10 09:32:38;;;;;;;10.07;3.70;;;3.70;99.90;;;;;;4903870;29;20199;-72
2021/12/10 09:35:09;;;;;;;8.13;3.60;;;3.70;99.90;;;;;;4902235;29;20238;-75
2021/12/10 09:37:36;;;;;;;9.27;3.70;;;3.70;99.90;;;;;;4903520;29;20656;-73
2021/12/10 09:40:07;;;;;;;10.60;3.50;;;3.80;99.90;;;;;;4903909;29;20211;-69
2021/12/10 09:42:34;;;;;;;11.20;4.10;;;3.80;99.90;;;;;;4905573;29;20582;-74
2021/12/10 09:45:00;;;;;;;7.80;3.20;;;3.80;99.90;;;;;;4904034;29;20503;-74
2021/12/10 09:47:29;;;;;;;5.70;3.43;;;3.80;99.90;;;;;;4908449;29;20195;-72
2021/12/10 09:49:56;;;;;;;7.83;3.50;;;3.80;99.90;;;;;;4893645;29;20203;-73
2021/12/10 09:52:26;;;;;;;11.13;3.80;;;4.00;99.90;;;;;;4900906;29;20672;-73
2021/12/10 09:54:53;;;;;;;13.70;3.27;;;4.10;99.90;;;;;;4903360;29;20730;-74
2021/12/10 09:57:25;;;;;;;7.80;3.57;;;4.20;99.90;;;;;;4905449;29;20229;-72
2021/12/10 10:00:26;;;;;;;7.33;2.97;;;4.20;99.90;;;;;;4902401;29;20668;-73
2021/12/10 10:02:53;;;;;;;6.17;3.10;;;4.20;99.90;;;;;;4900951;29;20494;-72
2021/12/10 10:05:26;;;;;;;7.37;3.33;;;4.30;99.90;;;;;;4906334;29;20314;-72
2021/12/10 10:08:00;;;;;;;11.43;3.30;;;4.30;99.90;;;;;;4906709;29;20233;-73
2021/12/10 10:10:28;;;;;;;7.53;3.40;;;4.40;99.90;;;;;;4905170;29;20230;-72
2021/12/10 10:12:57;;;;;;;7.57;3.53;;;4.40;99.90;;;;;;4900648;29;20207;-71
2021/12/10 10:15:31;;;;;;;5.07;3.13;;;4.40;99.90;;;;;;4904776;29;20250;-74
2021/12/10 10:18:01;;;;;;;7.20;3.40;;;4.30;99.90;;;;;;4907204;29;20729;-74
2021/12/10 10:20:32;;;;;;;5.90;3.40;;;4.30;99.90;;;;;;4904192;29;20210;-72
2021/12/10 10:22:59;;;;;;;8.13;3.17;;;4.30;99.90;;;;;;4906207;29;20206;-71
2021/12/10 10:25:28;;;;;;;7.27;2.97;;;4.50;99.90;;;;;;4908908;29;20227;-76
2021/12/10 10:27:56;;;;;;;11.50;2.83;;;4.50;99.90;;;;;;4903971;29;20204;-73
2021/12/10 10:30:30;;;;;;;9.87;3.37;;;4.60;99.90;;;;;;4904190;29;20788;-71
2021/12/10 10:33:01;;;;;;;6.13;3.03;;;4.70;99.90;;;;;;4893632;29;20699;-73
2021/12/10 10:35:32;;;;;;;5.67;3.20;;;4.70;99.90;;;;;;4905453;29;20234;-73
2021/12/10 10:38:01;;;;;;;9.03;3.40;;;4.80;99.90;;;;;;4906066;29;20220;-74
2021/12/10 10:40:34;;;;;;;10.87;3.80;;;4.90;99.90;;;;;;4907709;29;20203;-72
2021/12/10 10:43:02;;;;;;;6.70;3.37;;;5.00;99.90;;;;;;4902411;29;20204;-72
2021/12/10 10:45:35;;;;;;;4.80;3.20;;;5.10;99.90;;;;;;4893961;29;20230;-73
2021/12/10 10:48:04;;;;;;;6.77;3.80;;;5.20;99.90;;;;;;4904977;29;20231;-72
2021/12/10 10:50:53;;;;;;;9.77;4.00;;;5.40;99.90;;;;;;4905276;29;20710;-74
2021/12/10 10:53:24;;;;;;;6.33;3.20;;;5.50;99.90;;;;;;4907887;29;20908;-73
2021/12/10 10:55:58;;;;;;;8.13;3.97;;;5.50;99.90;;;;;;4909727;29;20464;-71
2021/12/10 11:01:13;;;;;;;8.03;3.37;;;5.70;99.90;;;;;;5347971;23;20247;-73
2021/12/10 11:04:13;;;;;;;6.83;3.40;;;5.80;99.90;;;;;;4905288;29;20199;-75
2021/12/10 11:06:43;;;;;;;4.70;2.93;;;5.90;99.90;;;;;;4908716;29;20226;-73
2021/12/10 11:11:51;;;;;;;7.47;2.83;;;6.00;99.90;;;;;;5408631;23;21120;-72
2021/12/10 11:14:35;;;;;;;5.90;3.10;;;6.00;99.90;;;;;;4921546;29;20608;-71
2021/12/10 11:17:12;;;;;;;6.03;2.60;;;6.00;99.90;;;;;;4925794;29;20199;-71
2021/12/10 11:19:57;;;;;;;7.20;2.90;;;5.80;99.90;;;;;;4914901;29;20577;-72
2021/12/10 11:22:25;;;;;;;6.67;2.87;;;5.90;99.90;;;;;;4928484;29;20232;-73
2021/12/10 11:24:57;;;;;;;6.00;2.70;;;5.90;99.90;;;;;;4925592;29;20211;-73
2021/12/10 11:27:32;;;;;;;7.27;3.20;;;6.10;99.90;;;;;;4922962;29;20206;-73
2021/12/10 11:30:02;;;;;;;10.03;2.77;;;6.10;99.90;;;;;;4926686;29;20202;-73
2021/12/10 11:32:43;;;;;;;6.97;3.30;;;6.20;99.90;;;;;;4923058;29;20254;-76
2021/12/10 11:35:22;;;;;;;5.60;2.60;;;6.30;99.90;;;;;;4924388;29;20227;-75
2021/12/10 11:38:10;;;;;;;7.47;3.10;;;6.30;99.90;;;;;;4920004;29;20196;-73
2021/12/10 11:40:49;;;;;;;6.53;2.80;;;6.30;99.90;;;;;;4926804;29;20274;-74
2021/12/10 11:43:43;;;;;;;5.23;2.60;;;6.40;99.90;;;;;;4924020;29;20207;-74
2021/12/10 11:48:51;;;;;;;9.17;3.13;;;6.40;99.90;;;;;;4922164;29;20294;-70
2021/12/10 11:51:31;;;;;;;7.07;3.17;;;6.40;99.90;;;;;;4910978;29;20712;-72
2021/12/10 11:54:02;;;;;;;6.10;3.00;;;6.50;99.90;;;;;;4924342;29;20230;-72
2021/12/10 11:56:31;;;;;;;6.60;3.07;;;6.50;99.90;;;;;;4922271;29;20698;-76
2021/12/10 11:59:16;;;;;;;7.27;2.90;;;6.60;99.90;;;;;;4925831;29;20210;-73
2021/12/10 12:01:57;;;;;;;5.90;2.80;;;6.60;99.90;;;;;;4924122;29;20270;-72
2021/12/10 12:04:37;;;;;;;7.50;3.23;;;6.50;99.90;;;;;;4924003;29;20211;-73
2021/12/10 12:07:25;;;;;;;8.20;2.97;;;6.50;99.90;;;;;;4924696;29;20207;-74
2021/12/10 12:09:56;;;;;;;4.27;2.47;;;6.40;99.90;;;;;;4927381;29;20203;-73
2021/12/10 12:12:37;;;;;;;6.90;2.73;;;6.30;99.90;;;;;;4915220;29;20227;-73
2021/12/10 12:15:18;;;;;;;5.63;3.10;;;6.30;99.90;;;;;;4917731;29;20249;-73
2021/12/10 12:17:54;;;;;;;6.07;3.00;;;6.30;99.90;;;;;;4921087;29;20225;-72
2021/12/10 12:20:33;;;;;;;5.17;2.93;;;6.20;99.90;;;;;;4907916;29;20883;-74
2021/12/10 12:25:54;;;;;;;5.47;3.00;;;5.90;99.90;;;;;;4924546;29;20210;-75
2021/12/10 12:28:49;;;;;;;5.20;2.97;;;5.80;99.90;;;;;;4921182;29;21075;-72
2021/12/10 12:31:39;;;;;;;6.80;3.20;;;5.70;99.90;;;;;;4922035;29;20249;-74
2021/12/10 12:34:17;;;;;;;5.33;2.63;;;5.60;99.90;;;;;;4924020;29;20290;-73
2021/12/10 12:36:50;;;;;;;5.97;3.23;;;5.50;99.90;;;;;;4923318;29;20791;-72
2021/12/10 12:39:44;;;;;;;5.57;3.27;;;5.50;99.90;;;;;;4923038;29;20211;-71
2021/12/10 12:42:26;;;;;;;10.07;3.30;;;5.30;99.90;;;;;;4918631;29;21588;-73
2021/12/10 12:45:13;;;;;;;7.53;3.20;;;5.30;99.90;;;;;;4918593;29;20214;-71
2021/12/10 12:48:07;;;;;;;6.60;2.93;;;5.20;99.90;;;;;;4921986;29;20302;-71
2021/12/10 12:50:46;;;;;;;7.00;2.90;;;5.00;99.90;;;;;;4925909;29;20230;-76
2021/12/10 12:53:29;;;;;;;6.23;2.70;;;4.90;99.90;;;;;;4917802;29;20209;-74
2021/12/10 12:56:03;;;;;;;3.90;2.50;;;4.90;99.90;;;;;;4917184;29;20242;-71
2021/12/10 12:58:49;;;;;;;6.23;2.70;;;4.90;99.90;;;;;;4922715;29;20276;-71
2021/12/10 13:01:26;;;;;;;3.10;2.30;;;4.90;99.90;;;;;;4921349;29;20307;-74
2021/12/10 13:04:09;;;;;;;3.03;2.20;;;4.80;99.90;;;;;;4925301;29;20197;-71
2021/12/10 13:07:11;;;;;;;4.77;2.10;;;4.90;99.90;;;;;;4919700;29;20203;-72
2021/12/10 13:09:52;;;;;;;3.67;2.33;;;4.80;99.90;;;;;;4924758;29;20313;-70
2021/12/10 13:12:39;;;;;;;5.23;2.33;;;4.80;99.90;;;;;;4925618;29;20953;-72
2021/12/10 13:15:22;;;;;;;5.23;2.40;;;4.70;99.90;;;;;;4916236;29;20229;-72
2021/12/10 13:17:57;;;;;;;10.30;2.40;;;4.60;99.90;;;;;;4925728;29;20223;-74
2021/12/10 13:20:31;;;;;;;6.57;2.97;;;4.50;99.90;;;;;;4920990;29;20208;-74
2021/12/10 13:23:01;;;;;;;7.20;2.47;;;4.60;99.90;;;;;;4913578;29;20627;-69
2021/12/10 13:25:32;;;;;;;4.67;2.30;;;4.70;99.90;;;;;;4924574;29;20230;-74
2021/12/10 13:28:01;;;;;;;5.07;2.60;;;4.70;99.90;;;;;;4922239;29;20202;-71
2021/12/10 13:30:41;;;;;;;4.07;2.60;;;4.80;99.90;;;;;;4923286;29;20212;-73